createdAt,value
2023-01-29T00:00:05.093Z,-4.29
2023-01-29T00:00:16.499Z,-4.30
2023-01-29T00:00:27.089Z,-4.29
2023-01-29T00:00:37.576Z,-4.29
2023-01-29T00:00:48.568Z,-4.28
2023-01-29T00:00:59.569Z,-4.30
2023-01-29T00:01:10.605Z,-4.28
2023-01-29T00:01:21.071Z,-4.30
2023-01-29T00:01:31.557Z,-4.29
2023-01-29T00:01:42.600Z,-4.29
2023-01-29T00:01:53.562Z,-4.32
2023-01-29T00:02:04.622Z,-4.30
2023-01-29T00:02:15.616Z,-4.32
2023-01-29T00:02:26.596Z,-4.30
2023-01-29T00:02:37.543Z,-4.32
2023-01-29T00:02:48.624Z,-4.30
2023-01-29T00:02:59.659Z,-4.29
2023-01-29T00:03:10.605Z,-4.32
2023-01-29T00:03:21.106Z,-4.32
2023-01-29T00:03:32.035Z,-4.32
2023-01-29T00:03:43.038Z,-4.33
2023-01-29T00:03:54.017Z,-4.30
2023-01-29T00:04:05.019Z,-4.30
2023-01-29T00:04:16.019Z,-4.30
2023-01-29T00:04:27.020Z,-4.30
2023-01-29T00:04:38.008Z,-4.30
2023-01-29T00:04:48.496Z,-4.30
2023-01-29T00:05:03.099Z,-4.32
2023-01-29T00:05:26.446Z,-4.33
2023-01-29T00:05:28.483Z,-4.32
2023-01-29T00:05:33.479Z,-4.33
2023-01-29T00:05:43.496Z,-4.35
2023-01-29T00:05:54.478Z,-4.33
2023-01-29T00:06:05.468Z,-4.35
2023-01-29T00:06:16.470Z,-4.33
2023-01-29T00:06:27.461Z,-4.35
2023-01-29T00:06:38.459Z,-4.35
2023-01-29T00:06:49.461Z,-4.35
2023-01-29T00:07:00.463Z,-4.35
2023-01-29T00:07:11.443Z,-4.38
2023-01-29T00:07:22.440Z,-4.36
2023-01-29T00:07:33.444Z,-4.39
2023-01-29T00:07:44.435Z,-4.38
2023-01-29T00:07:55.433Z,-4.40
2023-01-29T00:08:06.421Z,-4.42
2023-01-29T00:08:16.932Z,-4.43
2023-01-29T00:08:27.929Z,-4.46
2023-01-29T00:08:38.940Z,-4.46
2023-01-29T00:08:49.911Z,-4.47
2023-01-29T00:09:00.907Z,-4.49
2023-01-29T00:09:11.897Z,-4.50
2023-01-29T00:09:22.409Z,-4.47
2023-01-29T00:09:33.398Z,-4.49
2023-01-29T00:09:44.400Z,-4.49
2023-01-29T00:09:55.400Z,-4.50
2023-01-29T00:10:06.387Z,-4.51
2023-01-29T00:10:17.274Z,-4.54
2023-01-29T00:10:27.405Z,-4.53
2023-01-29T00:10:38.381Z,-4.53
2023-01-29T00:10:48.897Z,-4.57
2023-01-29T00:10:59.880Z,-4.57
2023-01-29T00:11:10.920Z,-4.57
2023-01-29T00:11:21.883Z,-4.58
2023-01-29T00:11:32.373Z,-4.58
2023-01-29T00:11:42.889Z,-4.58
2023-01-29T00:11:53.887Z,-4.60
2023-01-29T00:12:04.368Z,-4.60
2023-01-29T00:12:15.363Z,-4.65
2023-01-29T00:12:26.359Z,-4.67
2023-01-29T00:12:37.351Z,-4.68
2023-01-29T00:12:47.853Z,-4.68
2023-01-29T00:12:58.850Z,-4.69
2023-01-29T00:13:09.848Z,-4.69
2023-01-29T00:13:20.860Z,-4.72
2023-01-29T00:13:31.837Z,-4.74
2023-01-29T00:13:42.835Z,-4.74
2023-01-29T00:13:53.834Z,-4.74
2023-01-29T00:14:04.829Z,-4.74
2023-01-29T00:14:15.830Z,-4.75
2023-01-29T00:14:26.826Z,-4.77
2023-01-29T00:14:37.828Z,-4.75
2023-01-29T00:14:48.821Z,-4.78
2023-01-29T00:14:59.813Z,-4.75
2023-01-29T00:15:10.814Z,-4.78
2023-01-29T00:15:21.806Z,-4.77
2023-01-29T00:15:32.799Z,-4.78
2023-01-29T00:15:43.801Z,-4.78
2023-01-29T00:15:54.797Z,-4.78
2023-01-29T00:16:05.789Z,-4.77
2023-01-29T00:16:16.792Z,-4.75
2023-01-29T00:16:27.794Z,-4.75
2023-01-29T00:16:38.819Z,-4.75
2023-01-29T00:16:49.795Z,-4.74
2023-01-29T00:17:00.894Z,-4.75
2023-01-29T00:17:11.842Z,-4.75
2023-01-29T00:17:22.856Z,-4.74
2023-01-29T00:17:33.769Z,-4.75
2023-01-29T00:17:44.755Z,-4.77
2023-01-29T00:17:55.756Z,-4.78
2023-01-29T00:18:06.754Z,-4.78
2023-01-29T00:18:17.240Z,-4.77
2023-01-29T00:18:28.255Z,-4.78
2023-01-29T00:18:39.235Z,-4.78
2023-01-29T00:18:50.237Z,-4.78
2023-01-29T00:19:01.236Z,-4.78
2023-01-29T00:19:12.248Z,-4.79
2023-01-29T00:19:23.222Z,-4.81
2023-01-29T00:19:33.721Z,-4.83
2023-01-29T00:19:44.716Z,-4.83
2023-01-29T00:19:55.726Z,-4.83
2023-01-29T00:20:06.720Z,-4.86
2023-01-29T00:20:18.283Z,-4.87
2023-01-29T00:20:28.695Z,-4.87
2023-01-29T00:20:39.706Z,-4.89
2023-01-29T00:20:50.691Z,-4.89
2023-01-29T00:21:01.687Z,-4.90
2023-01-29T00:21:12.694Z,-4.92
2023-01-29T00:21:23.683Z,-4.90
2023-01-29T00:21:34.681Z,-4.92
2023-01-29T00:21:45.672Z,-4.92
2023-01-29T00:21:56.165Z,-4.93
2023-01-29T00:22:07.158Z,-4.93
2023-01-29T00:22:18.154Z,-4.93
2023-01-29T00:22:28.660Z,-4.93
2023-01-29T00:22:39.660Z,-4.93
2023-01-29T00:22:50.645Z,-4.95
2023-01-29T00:23:01.646Z,-4.96
2023-01-29T00:23:12.652Z,-4.95
2023-01-29T00:23:23.801Z,-4.96
2023-01-29T00:23:34.639Z,-4.95
2023-01-29T00:23:45.130Z,-4.96
2023-01-29T00:23:56.167Z,-4.97
2023-01-29T00:24:06.698Z,-4.97
2023-01-29T00:24:17.748Z,-4.99
2023-01-29T00:24:28.156Z,-4.99
2023-01-29T00:24:39.126Z,-5.00
2023-01-29T00:24:50.121Z,-4.99
2023-01-29T00:25:01.124Z,-5.00
2023-01-29T00:25:12.120Z,-5.03
2023-01-29T00:25:22.611Z,-4.99
2023-01-29T00:25:33.630Z,-5.03
2023-01-29T00:25:44.609Z,-5.00
2023-01-29T00:25:55.610Z,-5.00
2023-01-29T00:26:06.599Z,-4.99
2023-01-29T00:26:17.098Z,-5.00
2023-01-29T00:26:28.105Z,-4.97
2023-01-29T00:26:38.600Z,-4.97
2023-01-29T00:26:49.596Z,-4.96
2023-01-29T00:27:00.113Z,-4.95
2023-01-29T00:27:11.084Z,-4.95
2023-01-29T00:27:22.074Z,-4.95
2023-01-29T00:27:32.579Z,-4.93
2023-01-29T00:27:43.588Z,-4.93
2023-01-29T00:27:54.579Z,-4.92
2023-01-29T00:28:05.568Z,-4.93
2023-01-29T00:28:16.567Z,-4.92
2023-01-29T00:28:27.572Z,-4.93
2023-01-29T00:28:38.560Z,-4.93
2023-01-29T00:28:49.555Z,-4.93
2023-01-29T00:29:00.627Z,-4.95
2023-01-29T00:29:11.562Z,-4.93
2023-01-29T00:29:22.544Z,-4.96
2023-01-29T00:29:33.547Z,-4.95
2023-01-29T00:29:44.533Z,-4.95
2023-01-29T00:29:55.527Z,-4.95
2023-01-29T00:30:06.528Z,-4.99
2023-01-29T00:30:17.846Z,-4.93
2023-01-29T00:30:28.013Z,-4.96
2023-01-29T00:30:39.005Z,-4.96
2023-01-29T00:30:50.006Z,-4.96
2023-01-29T00:31:01.063Z,-4.95
2023-01-29T00:31:12.164Z,-4.96
2023-01-29T00:31:22.626Z,-4.96
2023-01-29T00:31:33.523Z,-4.93
2023-01-29T00:31:44.133Z,-4.92
2023-01-29T00:31:55.154Z,-4.92
2023-01-29T00:32:06.075Z,-4.92
2023-01-29T00:32:16.626Z,-4.90
2023-01-29T00:32:27.474Z,-4.89
2023-01-29T00:32:37.972Z,-4.89
2023-01-29T00:32:48.497Z,-4.87
2023-01-29T00:32:59.475Z,-4.89
2023-01-29T00:33:10.471Z,-4.87
2023-01-29T00:33:21.455Z,-4.87
2023-01-29T00:33:32.486Z,-4.85
2023-01-29T00:33:43.453Z,-4.85
2023-01-29T00:33:54.452Z,-4.81
2023-01-29T00:34:05.454Z,-4.83
2023-01-29T00:34:15.943Z,-4.79
2023-01-29T00:34:26.950Z,-4.81
2023-01-29T00:34:37.934Z,-4.83
2023-01-29T00:34:48.437Z,-4.79
2023-01-29T00:34:59.430Z,-4.81
2023-01-29T00:35:09.929Z,-4.78
2023-01-29T00:35:20.925Z,-4.77
2023-01-29T00:35:31.930Z,-4.75
2023-01-29T00:35:42.425Z,-4.74
2023-01-29T00:35:53.420Z,-4.74
2023-01-29T00:36:03.920Z,-4.72
2023-01-29T00:36:14.410Z,-4.74
2023-01-29T00:36:25.406Z,-4.74
2023-01-29T00:36:36.404Z,-4.74
2023-01-29T00:36:47.407Z,-4.72
2023-01-29T00:36:58.399Z,-4.72
2023-01-29T00:37:09.045Z,-4.71
2023-01-29T00:37:19.905Z,-4.75
2023-01-29T00:37:30.885Z,-4.71
2023-01-29T00:37:41.898Z,-4.71
2023-01-29T00:37:52.893Z,-4.71
2023-01-29T00:38:03.878Z,-4.71
2023-01-29T00:38:14.871Z,-4.71
2023-01-29T00:38:25.866Z,-4.71
2023-01-29T00:38:36.877Z,-4.69
2023-01-29T00:38:47.872Z,-4.69
2023-01-29T00:38:59.010Z,-4.69
2023-01-29T00:39:09.849Z,-4.69
2023-01-29T00:39:20.859Z,-4.69
2023-01-29T00:39:46.812Z,-4.69
2023-01-29T00:39:48.136Z,-4.68
2023-01-29T00:39:53.838Z,-4.67
2023-01-29T00:40:04.837Z,-4.65
2023-01-29T00:40:16.076Z,-4.67
2023-01-29T00:40:26.827Z,-4.65
2023-01-29T00:40:37.332Z,-4.65
2023-01-29T00:40:48.327Z,-4.63
2023-01-29T00:40:59.326Z,-4.65
2023-01-29T00:41:10.323Z,-4.63
2023-01-29T00:41:21.338Z,-4.65
2023-01-29T00:41:32.322Z,-4.61
2023-01-29T00:41:43.318Z,-4.61
2023-01-29T00:41:54.314Z,-4.63
2023-01-29T00:42:05.354Z,-4.61
2023-01-29T00:42:16.312Z,-4.63
2023-01-29T00:42:27.306Z,-4.63
2023-01-29T00:42:37.822Z,-4.58
2023-01-29T00:42:48.309Z,-4.58
2023-01-29T00:42:58.815Z,-4.60
2023-01-29T00:43:09.316Z,-4.58
2023-01-29T00:43:20.296Z,-4.57
2023-01-29T00:43:30.799Z,-4.57
2023-01-29T00:43:41.313Z,-4.56
2023-01-29T00:43:52.296Z,-4.56
2023-01-29T00:44:03.297Z,-4.53
2023-01-29T00:44:14.298Z,-4.53
2023-01-29T00:44:25.289Z,-4.56
2023-01-29T00:44:36.293Z,-4.53
2023-01-29T00:44:47.290Z,-4.53
2023-01-29T00:44:58.284Z,-4.51
2023-01-29T00:45:09.284Z,-4.50
2023-01-29T00:45:19.774Z,-4.51
2023-01-29T00:45:30.782Z,-4.50
2023-01-29T00:45:41.790Z,-4.49
2023-01-29T00:45:52.272Z,-4.49
2023-01-29T00:46:03.268Z,-4.49
2023-01-29T00:46:13.861Z,-4.49
2023-01-29T00:46:24.856Z,-4.49
2023-01-29T00:46:35.771Z,-4.49
2023-01-29T00:46:46.834Z,-4.46
2023-01-29T00:46:57.793Z,-4.47
2023-01-29T00:47:08.755Z,-4.43
2023-01-29T00:47:19.251Z,-4.43
2023-01-29T00:47:30.249Z,-4.43
2023-01-29T00:47:41.256Z,-4.40
2023-01-29T00:47:52.249Z,-4.40
2023-01-29T00:48:03.253Z,-4.42
2023-01-29T00:48:13.740Z,-4.39
2023-01-29T00:48:24.751Z,-4.36
2023-01-29T00:48:35.730Z,-4.35
2023-01-29T00:48:46.251Z,-4.33
2023-01-29T00:48:57.225Z,-4.32
2023-01-29T00:49:07.724Z,-4.30
2023-01-29T00:49:18.716Z,-4.29
2023-01-29T00:49:29.715Z,-4.29
2023-01-29T00:49:40.228Z,-4.29
2023-01-29T00:49:51.218Z,-4.25
2023-01-29T00:50:02.223Z,-4.24
2023-01-29T00:50:13.254Z,-4.25
2023-01-29T00:50:24.209Z,-4.21
2023-01-29T00:50:35.202Z,-4.21
2023-01-29T00:50:46.202Z,-4.20
2023-01-29T00:50:57.200Z,-4.21
2023-01-29T00:51:08.200Z,-4.18
2023-01-29T00:51:19.197Z,-4.17
2023-01-29T00:51:30.201Z,-4.17
2023-01-29T00:51:41.199Z,-4.17
2023-01-29T00:51:51.692Z,-4.17
2023-01-29T00:52:02.686Z,-4.15
2023-01-29T00:52:13.182Z,-4.15
2023-01-29T00:52:24.210Z,-4.14
2023-01-29T00:52:35.176Z,-4.12
2023-01-29T00:52:46.189Z,-4.12
2023-01-29T00:52:57.180Z,-4.10
2023-01-29T00:53:08.169Z,-4.10
2023-01-29T00:53:18.666Z,-4.07
2023-01-29T00:53:29.676Z,-4.07
2023-01-29T00:53:40.649Z,-4.06
2023-01-29T00:53:51.181Z,-4.07
2023-01-29T00:54:02.150Z,-4.04
2023-01-29T00:54:13.151Z,-4.03
2023-01-29T00:54:24.160Z,-4.04
2023-01-29T00:54:34.644Z,-4.04
2023-01-29T00:54:45.645Z,-4.01
2023-01-29T00:54:56.650Z,-4.04
2023-01-29T00:55:07.130Z,-4.03
2023-01-29T00:55:18.132Z,-4.04
2023-01-29T00:55:29.143Z,-4.03
2023-01-29T00:55:40.126Z,-4.01
2023-01-29T00:55:51.123Z,-4.04
2023-01-29T00:56:01.624Z,-4.03
2023-01-29T00:56:12.613Z,-4.03
2023-01-29T00:56:23.612Z,-4.03
2023-01-29T00:56:34.109Z,-4.04
2023-01-29T00:56:45.146Z,-4.01
2023-01-29T00:56:56.101Z,-4.03
2023-01-29T00:57:06.610Z,-4.00
2023-01-29T00:57:17.123Z,-4.00
2023-01-29T00:57:27.598Z,-4.00
2023-01-29T00:57:38.593Z,-4.00
2023-01-29T00:57:49.593Z,-4.00
2023-01-29T00:58:00.137Z,-3.97
2023-01-29T00:58:11.091Z,-3.96
2023-01-29T00:58:22.097Z,-3.96
2023-01-29T00:58:33.092Z,-3.94
2023-01-29T00:58:44.081Z,-3.91
2023-01-29T00:58:54.599Z,-3.93
2023-01-29T00:59:05.578Z,-3.91
2023-01-29T00:59:16.585Z,-3.93
2023-01-29T00:59:27.573Z,-3.91
2023-01-29T00:59:38.574Z,-3.91
2023-01-29T00:59:49.567Z,-3.90
2023-01-29T01:00:00.565Z,-3.90
2023-01-29T01:00:11.070Z,-3.90
2023-01-29T01:00:22.060Z,-3.91
2023-01-29T01:00:32.586Z,-3.88
2023-01-29T01:00:43.105Z,-3.86
2023-01-29T01:00:54.103Z,-3.86
2023-01-29T01:01:05.089Z,-3.86
2023-01-29T01:01:16.099Z,-3.86
2023-01-29T01:01:27.054Z,-3.85
2023-01-29T01:01:37.571Z,-3.85
2023-01-29T01:01:48.120Z,-3.86
2023-01-29T01:01:59.058Z,-3.85
2023-01-29T01:02:09.747Z,-3.85
2023-01-29T01:02:20.138Z,-3.83
2023-01-29T01:02:31.040Z,-3.85
2023-01-29T01:02:42.032Z,-3.83
2023-01-29T01:02:53.032Z,-3.83
2023-01-29T01:03:03.521Z,-3.85
2023-01-29T01:03:14.514Z,-3.82
2023-01-29T01:03:25.023Z,-3.82
2023-01-29T01:03:36.012Z,-3.83
2023-01-29T01:03:47.015Z,-3.82
2023-01-29T01:03:58.025Z,-3.81
2023-01-29T01:04:09.005Z,-3.81
2023-01-29T01:04:20.002Z,-3.81
2023-01-29T01:04:30.498Z,-3.79
2023-01-29T01:04:41.492Z,-3.78
2023-01-29T01:04:52.001Z,-3.79
2023-01-29T01:05:03.003Z,-3.78
2023-01-29T01:05:14.072Z,-3.78
2023-01-29T01:05:24.995Z,-3.78
2023-01-29T01:05:35.481Z,-3.76
2023-01-29T01:05:46.480Z,-3.76
2023-01-29T01:05:56.979Z,-3.76
2023-01-29T01:06:07.987Z,-3.78
2023-01-29T01:06:18.468Z,-3.76
2023-01-29T01:06:29.473Z,-3.75
2023-01-29T01:06:40.468Z,-3.75
2023-01-29T01:06:51.467Z,-3.76
2023-01-29T01:07:02.479Z,-3.75
2023-01-29T01:07:12.963Z,-3.78
2023-01-29T01:07:23.958Z,-3.75
2023-01-29T01:07:34.955Z,-3.76
2023-01-29T01:07:45.951Z,-3.76
2023-01-29T01:07:56.946Z,-3.76
2023-01-29T01:08:07.942Z,-3.76
2023-01-29T01:08:18.439Z,-3.75
2023-01-29T01:08:29.436Z,-3.72
2023-01-29T01:08:39.944Z,-3.75
2023-01-29T01:08:50.934Z,-3.76
2023-01-29T01:09:01.457Z,-3.75
2023-01-29T01:09:11.947Z,-3.75
2023-01-29T01:09:22.932Z,-3.72
2023-01-29T01:09:33.424Z,-3.72
2023-01-29T01:09:43.924Z,-3.72
2023-01-29T01:09:54.423Z,-3.72
2023-01-29T01:10:05.428Z,-3.72
2023-01-29T01:10:16.808Z,-3.71
2023-01-29T01:10:27.426Z,-3.75
2023-01-29T01:10:37.909Z,-3.72
2023-01-29T01:10:48.918Z,-3.72
2023-01-29T01:10:59.919Z,-3.72
2023-01-29T01:11:10.902Z,-3.72
2023-01-29T01:11:21.916Z,-3.72
2023-01-29T01:11:32.907Z,-3.71
2023-01-29T01:11:43.895Z,-3.72
2023-01-29T01:11:54.886Z,-3.71
2023-01-29T01:12:05.896Z,-3.71
2023-01-29T01:12:16.391Z,-3.71
2023-01-29T01:12:27.391Z,-3.71
2023-01-29T01:12:37.878Z,-3.71
2023-01-29T01:12:48.876Z,-3.72
2023-01-29T01:12:59.885Z,-3.72
2023-01-29T01:13:10.865Z,-3.72
2023-01-29T01:13:21.873Z,-3.72
2023-01-29T01:13:32.857Z,-3.71
2023-01-29T01:13:43.855Z,-3.75
2023-01-29T01:13:54.856Z,-3.75
2023-01-29T01:14:05.871Z,-3.71
2023-01-29T01:14:16.844Z,-3.71
2023-01-29T01:14:27.843Z,-3.76
2023-01-29T01:14:38.847Z,-3.75
2023-01-29T01:14:49.836Z,-3.76
2023-01-29T01:15:00.823Z,-3.76
2023-01-29T01:15:11.821Z,-3.76
2023-01-29T01:15:22.320Z,-3.75
2023-01-29T01:15:33.314Z,-3.78
2023-01-29T01:15:43.807Z,-3.78
2023-01-29T01:15:54.847Z,-3.79
2023-01-29T01:16:05.832Z,-3.78
2023-01-29T01:16:16.857Z,-3.79
2023-01-29T01:16:27.833Z,-3.79
2023-01-29T01:16:38.848Z,-3.78
2023-01-29T01:16:49.784Z,-3.81
2023-01-29T01:17:00.274Z,-3.79
2023-01-29T01:17:10.781Z,-3.81
2023-01-29T01:17:21.769Z,-3.79
2023-01-29T01:17:32.280Z,-3.78
2023-01-29T01:17:43.296Z,-3.79
2023-01-29T01:17:53.780Z,-3.79
2023-01-29T01:18:04.772Z,-3.79
2023-01-29T01:18:15.766Z,-3.78
2023-01-29T01:18:26.769Z,-3.78
2023-01-29T01:18:37.757Z,-3.78
2023-01-29T01:18:48.753Z,-3.78
2023-01-29T01:18:59.246Z,-3.75
2023-01-29T01:19:10.260Z,-3.75
2023-01-29T01:19:20.754Z,-3.71
2023-01-29T01:19:31.745Z,-3.71
2023-01-29T01:19:42.244Z,-3.71
2023-01-29T01:19:53.242Z,-3.69
2023-01-29T01:20:04.252Z,-3.64
2023-01-29T01:20:15.643Z,-3.66
2023-01-29T01:20:26.234Z,-3.63
2023-01-29T01:20:37.243Z,-3.63
2023-01-29T01:20:48.227Z,-3.63
2023-01-29T01:20:59.226Z,-3.63
2023-01-29T01:21:10.216Z,-3.62
2023-01-29T01:21:20.736Z,-3.63
2023-01-29T01:21:31.213Z,-3.62
2023-01-29T01:21:42.217Z,-3.60
2023-01-29T01:21:52.718Z,-3.60
2023-01-29T01:22:03.715Z,-3.62
2023-01-29T01:22:14.207Z,-3.60
2023-01-29T01:22:24.714Z,-3.60
2023-01-29T01:22:35.714Z,-3.62
2023-01-29T01:22:46.709Z,-3.62
2023-01-29T01:22:57.701Z,-3.60
2023-01-29T01:23:08.213Z,-3.60
2023-01-29T01:23:19.207Z,-3.60
2023-01-29T01:23:30.203Z,-3.60
2023-01-29T01:23:40.691Z,-3.60
2023-01-29T01:23:51.692Z,-3.60
2023-01-29T01:24:02.203Z,-3.57
2023-01-29T01:24:13.291Z,-3.60
2023-01-29T01:24:24.257Z,-3.59
2023-01-29T01:24:34.685Z,-3.60
2023-01-29T01:24:45.688Z,-3.57
2023-01-29T01:24:56.690Z,-3.59
2023-01-29T01:25:07.676Z,-3.60
2023-01-29T01:25:18.670Z,-3.60
2023-01-29T01:25:29.707Z,-3.59
2023-01-29T01:25:40.672Z,-3.59
2023-01-29T01:25:51.674Z,-3.59
2023-01-29T01:26:02.665Z,-3.60
2023-01-29T01:26:13.664Z,-3.60
2023-01-29T01:26:24.664Z,-3.60
2023-01-29T01:26:35.661Z,-3.60
2023-01-29T01:26:46.648Z,-3.59
2023-01-29T01:26:57.645Z,-3.59
2023-01-29T01:27:08.642Z,-3.57
2023-01-29T01:27:19.134Z,-3.59
2023-01-29T01:27:30.154Z,-3.57
2023-01-29T01:27:41.301Z,-3.59
2023-01-29T01:27:52.184Z,-3.60
2023-01-29T01:28:03.197Z,-3.59
2023-01-29T01:28:14.127Z,-3.59
2023-01-29T01:28:24.628Z,-3.59
2023-01-29T01:28:35.125Z,-3.57
2023-01-29T01:28:45.634Z,-3.57
2023-01-29T01:28:56.629Z,-3.59
2023-01-29T01:29:07.150Z,-3.59
2023-01-29T01:29:18.137Z,-3.57
2023-01-29T01:29:28.622Z,-3.57
2023-01-29T01:29:39.133Z,-3.60
2023-01-29T01:29:50.119Z,-3.59
2023-01-29T01:30:01.122Z,-3.57
2023-01-29T01:30:11.617Z,-3.57
2023-01-29T01:30:22.626Z,-3.59
2023-01-29T01:30:33.621Z,-3.59
2023-01-29T01:30:44.649Z,-3.57
2023-01-29T01:30:55.719Z,-3.59
2023-01-29T01:31:06.218Z,-3.57
2023-01-29T01:31:17.299Z,-3.57
2023-01-29T01:31:27.787Z,-3.60
2023-01-29T01:31:38.639Z,-3.56
2023-01-29T01:31:49.185Z,-3.56
2023-01-29T01:32:00.206Z,-3.57
2023-01-29T01:32:10.617Z,-3.56
2023-01-29T01:32:21.611Z,-3.56
2023-01-29T01:32:32.597Z,-3.57
2023-01-29T01:32:43.599Z,-3.56
2023-01-29T01:32:54.109Z,-3.57
2023-01-29T01:33:05.087Z,-3.57
2023-01-29T01:33:15.596Z,-3.54
2023-01-29T01:33:26.583Z,-3.54
2023-01-29T01:33:37.586Z,-3.54
2023-01-29T01:33:48.577Z,-3.53
2023-01-29T01:33:59.579Z,-3.53
2023-01-29T01:34:10.609Z,-3.54
2023-01-29T01:34:21.571Z,-3.54
2023-01-29T01:34:32.070Z,-3.54
2023-01-29T01:34:42.565Z,-3.52
2023-01-29T01:34:53.570Z,-3.53
2023-01-29T01:35:04.566Z,-3.52
2023-01-29T01:35:15.559Z,-3.49
2023-01-29T01:35:26.570Z,-3.52
2023-01-29T01:35:37.049Z,-3.49
2023-01-29T01:35:48.053Z,-3.48
2023-01-29T01:35:59.046Z,-3.48
2023-01-29T01:36:10.102Z,-3.45
2023-01-29T01:36:21.055Z,-3.46
2023-01-29T01:36:32.035Z,-3.48
2023-01-29T01:36:42.540Z,-3.46
2023-01-29T01:36:53.537Z,-3.52
2023-01-29T01:37:04.553Z,-3.46
2023-01-29T01:37:15.537Z,-3.46
2023-01-29T01:37:26.548Z,-3.46
2023-01-29T01:37:37.546Z,-3.48
2023-01-29T01:37:48.546Z,-3.48
2023-01-29T01:37:59.022Z,-3.48
2023-01-29T01:38:10.021Z,-3.48
2023-01-29T01:38:20.518Z,-3.48
2023-01-29T01:38:31.514Z,-3.46
2023-01-29T01:38:42.013Z,-3.48
2023-01-29T01:38:53.012Z,-3.46
2023-01-29T01:39:03.508Z,-3.49
2023-01-29T01:39:14.029Z,-3.48
2023-01-29T01:39:24.516Z,-3.49
2023-01-29T01:39:35.516Z,-3.49
2023-01-29T01:39:46.508Z,-3.49
2023-01-29T01:39:57.499Z,-3.48
2023-01-29T01:40:08.495Z,-3.48
2023-01-29T01:40:19.610Z,-3.52
2023-01-29T01:40:30.504Z,-3.49
2023-01-29T01:40:41.499Z,-3.52
2023-01-29T01:40:52.488Z,-3.53
2023-01-29T01:41:03.474Z,-3.52
2023-01-29T01:41:14.478Z,-3.52
2023-01-29T01:41:25.472Z,-3.52
2023-01-29T01:41:35.961Z,-3.52
2023-01-29T01:41:46.964Z,-3.53
2023-01-29T01:41:57.952Z,-3.53
2023-01-29T01:42:08.948Z,-3.53
2023-01-29T01:42:19.957Z,-3.53
2023-01-29T01:42:30.951Z,-3.53
2023-01-29T01:42:41.955Z,-3.53
2023-01-29T01:42:52.933Z,-3.54
2023-01-29T01:43:03.931Z,-3.56
2023-01-29T01:43:14.939Z,-3.56
2023-01-29T01:43:25.924Z,-3.56
2023-01-29T01:43:36.918Z,-3.56
2023-01-29T01:43:47.914Z,-3.56
2023-01-29T01:43:58.910Z,-3.57
2023-01-29T01:44:09.909Z,-3.57
2023-01-29T01:44:20.914Z,-3.56
2023-01-29T01:44:31.401Z,-3.57
2023-01-29T01:44:42.398Z,-3.56
2023-01-29T01:44:53.402Z,-3.54
2023-01-29T01:45:04.405Z,-3.56
2023-01-29T01:45:15.392Z,-3.54
2023-01-29T01:45:26.612Z,-3.54
2023-01-29T01:45:37.454Z,-3.53
2023-01-29T01:45:47.904Z,-3.52
2023-01-29T01:45:58.916Z,-3.52
2023-01-29T01:46:09.407Z,-3.52
2023-01-29T01:46:20.362Z,-3.49
2023-01-29T01:46:30.868Z,-3.48
2023-01-29T01:46:41.849Z,-3.46
2023-01-29T01:46:52.850Z,-3.48
2023-01-29T01:47:03.346Z,-3.46
2023-01-29T01:47:14.348Z,-3.48
2023-01-29T01:47:25.347Z,-3.46
2023-01-29T01:47:36.329Z,-3.45
2023-01-29T01:47:47.326Z,-3.45
2023-01-29T01:47:58.326Z,-3.43
2023-01-29T01:48:09.317Z,-3.45
2023-01-29T01:48:19.821Z,-3.43
2023-01-29T01:48:30.806Z,-3.43
2023-01-29T01:48:41.810Z,-3.43
2023-01-29T01:48:52.806Z,-3.45
2023-01-29T01:49:03.793Z,-3.43
2023-01-29T01:49:14.804Z,-3.42
2023-01-29T01:49:25.784Z,-3.45
2023-01-29T01:49:36.779Z,-3.45
2023-01-29T01:49:47.779Z,-3.43
2023-01-29T01:49:58.773Z,-3.43
2023-01-29T01:50:09.768Z,-3.42
2023-01-29T01:50:20.761Z,-3.42
2023-01-29T01:50:31.767Z,-3.41
2023-01-29T01:50:42.261Z,-3.42
2023-01-29T01:50:53.256Z,-3.42
2023-01-29T01:51:04.256Z,-3.42
2023-01-29T01:51:15.247Z,-3.39
2023-01-29T01:51:26.247Z,-3.41
2023-01-29T01:51:37.231Z,-3.41
2023-01-29T01:51:48.256Z,-3.39
2023-01-29T01:51:59.223Z,-3.39
2023-01-29T01:52:10.223Z,-3.39
2023-01-29T01:52:21.213Z,-3.38
2023-01-29T01:52:32.209Z,-3.39
2023-01-29T01:52:43.200Z,-3.36
2023-01-29T01:52:54.200Z,-3.35
2023-01-29T01:53:05.203Z,-3.35
2023-01-29T01:53:16.198Z,-3.35
2023-01-29T01:53:27.189Z,-3.35
2023-01-29T01:53:38.171Z,-3.35
2023-01-29T01:53:49.174Z,-3.33
2023-01-29T01:54:00.160Z,-3.33
2023-01-29T01:54:11.160Z,-3.31
2023-01-29T01:54:22.164Z,-3.33
2023-01-29T01:54:33.147Z,-3.30
2023-01-29T01:54:44.175Z,-3.30
2023-01-29T01:54:55.143Z,-3.31
2023-01-29T01:55:06.135Z,-3.30
2023-01-29T01:55:17.157Z,-3.30
2023-01-29T01:55:28.121Z,-3.31
2023-01-29T01:55:39.111Z,-3.30
2023-01-29T01:55:50.104Z,-3.31
2023-01-29T01:56:01.122Z,-3.33
2023-01-29T01:56:12.120Z,-3.33
2023-01-29T01:56:22.613Z,-3.30
2023-01-29T01:56:33.587Z,-3.31
2023-01-29T01:56:44.628Z,-3.31
2023-01-29T01:56:55.643Z,-3.31
2023-01-29T01:57:06.586Z,-3.30
2023-01-29T01:57:17.140Z,-3.30
2023-01-29T01:57:28.083Z,-3.31
2023-01-29T01:57:39.082Z,-3.30
2023-01-29T01:57:50.101Z,-3.31
2023-01-29T01:58:01.082Z,-3.31
2023-01-29T01:58:12.065Z,-3.28
2023-01-29T01:58:23.061Z,-3.30
2023-01-29T01:58:34.070Z,-3.30
2023-01-29T01:58:44.551Z,-3.28
2023-01-29T01:58:55.568Z,-3.28
2023-01-29T01:59:06.563Z,-3.30
2023-01-29T01:59:17.565Z,-3.28
2023-01-29T01:59:28.544Z,-3.27
2023-01-29T01:59:39.057Z,-3.28
2023-01-29T01:59:50.037Z,-3.28
2023-01-29T02:00:01.030Z,-3.28
2023-01-29T02:00:12.022Z,-3.28
2023-01-29T02:00:22.523Z,-3.27
2023-01-29T02:00:33.519Z,-3.28
2023-01-29T02:00:44.581Z,-3.28
2023-01-29T02:00:55.572Z,-3.28
2023-01-29T02:01:06.557Z,-3.30
2023-01-29T02:01:17.549Z,-3.30
2023-01-29T02:01:28.578Z,-3.30
2023-01-29T02:01:39.494Z,-3.28
2023-01-29T02:01:50.169Z,-3.31
2023-01-29T02:02:01.003Z,-3.33
2023-01-29T02:02:12.029Z,-3.33
2023-01-29T02:02:23.044Z,-3.33
2023-01-29T02:02:34.003Z,-3.35
2023-01-29T02:02:44.970Z,-3.35
2023-01-29T02:02:55.971Z,-3.36
2023-01-29T02:03:06.462Z,-3.38
2023-01-29T02:03:17.459Z,-3.36
2023-01-29T02:03:27.963Z,-3.39
2023-01-29T02:03:38.956Z,-3.41
2023-01-29T02:03:49.952Z,-3.39
2023-01-29T02:04:00.984Z,-3.41
2023-01-29T02:04:11.954Z,-3.42
2023-01-29T02:04:22.952Z,-3.41
2023-01-29T02:04:33.436Z,-3.43
2023-01-29T02:04:44.431Z,-3.42
2023-01-29T02:04:55.425Z,-3.42
2023-01-29T02:05:06.421Z,-3.43
2023-01-29T02:05:17.423Z,-3.45
2023-01-29T02:05:28.419Z,-3.45
2023-01-29T02:05:39.405Z,-3.46
2023-01-29T02:05:50.409Z,-3.43
2023-01-29T02:06:01.400Z,-3.43
2023-01-29T02:06:12.388Z,-3.45
2023-01-29T02:06:23.386Z,-3.45
2023-01-29T02:06:34.384Z,-3.43
2023-01-29T02:06:45.373Z,-3.43
2023-01-29T02:06:55.874Z,-3.43
2023-01-29T02:07:06.872Z,-3.43
2023-01-29T02:07:17.381Z,-3.45
2023-01-29T02:07:28.368Z,-3.45
2023-01-29T02:07:39.359Z,-3.45
2023-01-29T02:07:50.350Z,-3.45
2023-01-29T02:08:01.353Z,-3.45
2023-01-29T02:08:12.339Z,-3.45
2023-01-29T02:08:22.854Z,-3.46
2023-01-29T02:08:33.832Z,-3.45
2023-01-29T02:08:44.833Z,-3.45
2023-01-29T02:08:55.829Z,-3.46
2023-01-29T02:09:06.828Z,-3.43
2023-01-29T02:09:17.837Z,-3.45
2023-01-29T02:09:28.818Z,-3.46
2023-01-29T02:09:39.807Z,-3.46
2023-01-29T02:09:50.805Z,-3.46
2023-01-29T02:10:01.314Z,-3.46
2023-01-29T02:10:12.310Z,-3.45
2023-01-29T02:10:23.289Z,-3.49
2023-01-29T02:10:33.785Z,-3.46
2023-01-29T02:10:44.782Z,-3.48
2023-01-29T02:10:55.788Z,-3.46
2023-01-29T02:11:06.767Z,-3.48
2023-01-29T02:11:17.269Z,-3.48
2023-01-29T02:11:28.263Z,-3.48
2023-01-29T02:11:39.260Z,-3.48
2023-01-29T02:11:49.761Z,-3.46
2023-01-29T02:12:00.764Z,-3.48
2023-01-29T02:12:11.751Z,-3.46
2023-01-29T02:12:22.767Z,-3.48
2023-01-29T02:12:33.755Z,-3.49
2023-01-29T02:12:44.747Z,-3.48
2023-01-29T02:12:55.775Z,-3.48
2023-01-29T02:13:06.734Z,-3.46
2023-01-29T02:13:17.742Z,-3.49
2023-01-29T02:13:28.752Z,-3.48
2023-01-29T02:13:39.232Z,-3.48
2023-01-29T02:13:50.216Z,-3.49
2023-01-29T02:14:00.724Z,-3.49
2023-01-29T02:14:11.712Z,-3.53
2023-01-29T02:14:22.226Z,-3.52
2023-01-29T02:14:33.211Z,-3.53
2023-01-29T02:14:44.206Z,-3.53
2023-01-29T02:14:55.205Z,-3.53
2023-01-29T02:15:05.721Z,-3.52
2023-01-29T02:15:16.705Z,-3.54
2023-01-29T02:15:27.697Z,-3.54
2023-01-29T02:15:38.693Z,-3.53
2023-01-29T02:15:49.185Z,-3.56
2023-01-29T02:16:00.187Z,-3.57
2023-01-29T02:16:11.185Z,-3.57
2023-01-29T02:16:22.179Z,-3.59
2023-01-29T02:16:33.170Z,-3.60
2023-01-29T02:16:44.181Z,-3.62
2023-01-29T02:16:55.162Z,-3.62
2023-01-29T02:17:06.189Z,-3.62
2023-01-29T02:17:17.271Z,-3.63
2023-01-29T02:17:28.175Z,-3.66
2023-01-29T02:17:39.197Z,-3.66
2023-01-29T02:17:50.163Z,-3.67
2023-01-29T02:18:01.136Z,-3.69
2023-01-29T02:18:12.128Z,-3.71
2023-01-29T02:18:23.134Z,-3.72
2023-01-29T02:18:34.117Z,-3.72
2023-01-29T02:18:44.618Z,-3.72
2023-01-29T02:18:55.627Z,-3.75
2023-01-29T02:19:06.604Z,-3.76
2023-01-29T02:19:17.617Z,-3.75
2023-01-29T02:19:28.595Z,-3.76
2023-01-29T02:19:39.605Z,-3.79
2023-01-29T02:19:50.596Z,-3.79
2023-01-29T02:20:01.602Z,-3.81
2023-01-29T02:20:12.588Z,-3.82